createdAt,value
2018-06-01T00:00:10.152Z,96791.19
2018-06-01T00:02:38.317Z,96801.66
2018-06-01T00:05:06.488Z,96808.69
2018-06-01T00:07:34.649Z,96815.19
2018-06-01T00:10:02.817Z,96820.80
2018-06-01T00:12:30.986Z,96821.63
2018-06-01T00:14:59.162Z,96823.45
2018-06-01T00:17:27.352Z,96826.89
2018-06-01T00:19:55.534Z,96823.93
2018-06-01T00:22:23.742Z,96828.30
2018-06-01T00:24:51.888Z,96838.63
2018-06-01T00:27:21.147Z,96847.35
2018-06-01T00:29:49.341Z,96843.97
2018-06-01T00:32:17.848Z,96843.15
2018-06-01T00:34:46.045Z,96847.78
2018-06-01T00:37:14.212Z,96861.91
2018-06-01T00:39:42.387Z,96861.09
2018-06-01T00:42:10.558Z,96860.58
2018-06-01T00:44:38.731Z,96871.67
2018-06-01T00:47:06.900Z,96876.78
2018-06-01T00:49:35.062Z,96871.17
2018-06-01T00:52:03.858Z,96877.25
2018-06-01T00:54:49.872Z,96879.77
2018-06-01T00:57:18.051Z,96887.88
2018-06-01T00:59:47.054Z,96878.83
2018-06-01T01:02:21.766Z,96882.64
2018-06-01T01:04:49.910Z,96885.22
2018-06-01T01:07:18.117Z,96874.94
2018-06-01T01:09:46.276Z,96885.95
2018-06-01T01:14:47.049Z,96881.63
2018-06-01T01:17:19.168Z,96880.73
2018-06-01T01:19:48.270Z,96897.39
2018-06-01T01:22:16.436Z,96884.07
2018-06-01T01:24:44.637Z,96889.13
2018-06-01T01:27:12.764Z,96892.13
2018-06-01T01:29:40.937Z,96895.12
2018-06-01T01:32:23.976Z,96894.70
2018-06-01T01:34:52.157Z,96888.70
2018-06-01T01:37:31.193Z,96896.38
2018-06-01T01:39:59.377Z,96902.02
2018-06-01T01:42:28.485Z,96904.59
2018-06-01T01:44:56.667Z,96905.66
2018-06-01T01:47:24.833Z,96916.36
2018-06-01T01:49:53.815Z,96914.22
2018-06-01T01:52:21.996Z,96918.89
2018-06-01T01:54:50.168Z,96918.81
2018-06-01T01:57:18.512Z,96913.71
2018-06-01T01:59:46.678Z,96923.13
2018-06-01T02:02:14.846Z,96919.71
2018-06-01T02:04:43.031Z,96926.56
2018-06-01T02:07:12.082Z,96930.84
2018-06-01T02:09:40.278Z,96931.70
2018-06-01T02:12:08.419Z,96934.31
2018-06-01T02:14:36.636Z,96936.88
2018-06-01T02:17:04.891Z,96943.38
2018-06-01T02:19:33.090Z,96950.63
2018-06-01T02:22:01.268Z,96957.05
2018-06-01T02:24:29.490Z,96957.02
2018-06-01T02:26:57.618Z,96956.23
2018-06-01T02:29:25.772Z,96959.31
2018-06-01T02:31:53.949Z,96960.25
2018-06-01T02:34:23.895Z,96961.99
2018-06-01T02:36:52.090Z,96956.39
2018-06-01T02:39:20.249Z,96959.00
2018-06-01T02:41:48.849Z,96966.35
2018-06-01T02:44:16.992Z,96962.89
2018-06-01T02:46:45.157Z,96962.00
2018-06-01T02:49:13.313Z,96966.31
2018-06-01T02:51:41.509Z,96971.89
2018-06-01T02:54:09.673Z,96971.49
2018-06-01T02:56:37.817Z,96970.64
2018-06-01T02:59:05.993Z,96971.49
2018-06-01T03:01:34.158Z,96972.78
2018-06-01T03:04:02.350Z,96979.59
2018-06-01T03:06:42.111Z,96978.31
2018-06-01T03:09:10.283Z,96975.81
2018-06-01T03:11:38.425Z,96983.17
2018-06-01T03:14:06.573Z,96989.20
2018-06-01T03:16:34.751Z,96984.06
2018-06-01T03:19:02.945Z,96994.84
2018-06-01T03:21:31.890Z,96999.63
2018-06-01T03:24:00.590Z,97009.08
2018-06-01T03:26:28.753Z,97008.15
2018-06-01T03:28:56.905Z,97015.03
2018-06-01T03:31:25.065Z,97018.07
2018-06-01T03:33:53.215Z,97024.09
2018-06-01T03:36:22.082Z,97021.59
2018-06-01T03:38:50.240Z,97026.38
2018-06-01T03:41:18.411Z,97025.62
2018-06-01T03:43:46.583Z,97021.45
2018-06-01T03:46:14.725Z,97024.91
2018-06-01T03:48:42.903Z,97030.99
2018-06-01T03:51:11.057Z,97031.88
2018-06-01T03:53:39.258Z,97029.81
2018-06-01T03:56:07.423Z,97036.69
2018-06-01T03:58:35.914Z,97047.78
2018-06-01T04:01:04.076Z,97048.27
2018-06-01T04:03:32.270Z,97053.80
2018-06-01T04:06:00.455Z,97056.34
2018-06-01T04:08:28.626Z,97056.34
2018-06-01T04:10:56.784Z,97064.04
2018-06-01T04:13:24.997Z,97064.10
2018-06-01T04:15:53.177Z,97071.77
2018-06-01T04:18:22.891Z,97075.20
2018-06-01T04:20:51.067Z,97073.09
2018-06-01T04:23:19.218Z,97078.19
2018-06-01T04:25:47.402Z,97084.70
2018-06-01T04:28:15.534Z,97077.83
2018-06-01T04:30:45.456Z,97088.06
2018-06-01T04:33:13.974Z,97089.69
2018-06-01T04:35:42.122Z,97094.42
2018-06-01T04:38:10.280Z,97091.00
2018-06-01T04:40:38.447Z,97099.95
2018-06-01T04:43:06.620Z,97112.85
2018-06-01T04:45:34.794Z,97116.77
2018-06-01T04:48:02.966Z,97118.02
2018-06-01T04:50:31.154Z,97123.55
2018-06-01T04:52:59.332Z,97117.59
2018-06-01T04:55:27.486Z,97117.95
2018-06-01T04:57:55.636Z,97121.69
2018-06-01T05:00:25.444Z,97128.56
2018-06-01T05:02:53.589Z,97125.14
2018-06-01T05:05:22.744Z,97136.63
2018-06-01T05:07:50.906Z,97132.27
2018-06-01T05:10:19.080Z,97128.34
2018-06-01T05:12:47.231Z,97130.42
2018-06-01T05:15:15.431Z,97135.08
2018-06-01T05:17:43.924Z,97137.80
2018-06-01T05:20:15.832Z,97136.97
2018-06-01T05:22:44.016Z,97143.33
2018-06-01T05:25:12.210Z,97138.06
2018-06-01T05:27:41.376Z,97145.28
2018-06-01T05:30:09.924Z,97147.98
2018-06-01T05:32:38.078Z,97150.91
2018-06-01T05:35:06.245Z,97154.73
2018-06-01T05:37:34.418Z,97157.20
2018-06-01T05:40:02.578Z,97155.83
2018-06-01T05:42:30.736Z,97157.84
2018-06-01T05:44:58.878Z,97153.10
2018-06-01T05:47:27.048Z,97157.38
2018-06-01T05:49:55.212Z,97159.39
2018-06-01T05:52:23.354Z,97156.33
2018-06-01T05:54:51.522Z,97161.44
2018-06-01T05:57:19.718Z,97157.16
2018-06-01T05:59:47.890Z,97160.22
2018-06-01T06:02:19.934Z,97171.25
2018-06-01T06:04:48.076Z,97173.76
2018-06-01T06:07:16.239Z,97173.20
2018-06-01T06:09:44.406Z,97171.28
2018-06-01T06:12:12.552Z,97172.98
2018-06-01T06:14:40.712Z,97175.09
2018-06-01T06:17:14.823Z,97177.31
2018-06-01T06:19:42.962Z,97178.49
2018-06-01T06:22:11.141Z,97186.10
2018-06-01T06:24:40.774Z,97189.14
2018-06-01T06:27:08.936Z,97189.06
2018-06-01T06:29:37.096Z,97194.11
2018-06-01T06:32:05.272Z,97195.72
2018-06-01T06:34:33.410Z,97190.11
2018-06-01T06:37:01.588Z,97189.42
2018-06-01T06:39:29.758Z,97196.67
2018-06-01T06:41:57.906Z,97199.67
2018-06-01T06:44:29.440Z,97203.14
2018-06-01T06:46:57.596Z,97208.69
2018-06-01T06:49:38.417Z,97210.68
2018-06-01T06:52:06.582Z,97219.19
2018-06-01T06:54:38.623Z,97211.83
2018-06-01T06:57:06.793Z,97217.79
2018-06-01T06:59:34.966Z,97212.08
2018-06-01T07:02:03.170Z,97215.07
2018-06-01T07:04:31.380Z,97220.26
2018-06-01T07:07:00.830Z,97224.97
2018-06-01T07:09:28.991Z,97224.19
2018-06-01T07:11:57.162Z,97226.72
2018-06-01T07:14:25.319Z,97222.79
2018-06-01T07:16:53.856Z,97227.55
2018-06-01T07:19:22.032Z,97225.80
2018-06-01T07:21:50.192Z,97228.41
2018-06-01T07:24:21.395Z,97234.26
2018-06-01T07:26:49.566Z,97223.78
2018-06-01T07:29:17.770Z,97221.92
2018-06-01T07:31:45.939Z,97220.44
2018-06-01T07:34:14.915Z,97218.22
2018-06-01T07:36:43.542Z,97219.00
2018-06-01T07:39:11.704Z,97219.00
2018-06-01T07:41:39.854Z,97213.08
2018-06-01T07:44:08.035Z,97216.00
2018-06-01T07:46:36.198Z,97212.95
2018-06-01T07:49:04.380Z,97209.67
2018-06-01T07:51:32.550Z,97214.74
2018-06-01T07:54:00.695Z,97217.63
2018-06-01T07:56:28.875Z,97221.69
2018-06-01T07:58:57.071Z,97219.81
2018-06-01T08:01:25.242Z,97219.11
2018-06-01T08:03:53.380Z,97218.17
2018-06-01T08:06:22.521Z,97222.47
2018-06-01T08:08:50.702Z,97222.61
2018-06-01T08:11:18.855Z,97229.44
2018-06-01T08:13:47.349Z,97228.94
2018-06-01T08:16:16.096Z,97224.90
2018-06-01T08:18:44.271Z,97235.03
2018-06-01T08:21:13.615Z,97232.80
2018-06-01T08:23:41.767Z,97227.47
2018-06-01T08:26:10.013Z,97235.80
2018-06-01T08:28:41.963Z,97237.48
2018-06-01T08:31:10.105Z,97239.41
2018-06-01T08:33:38.255Z,97241.30
2018-06-01T08:36:06.434Z,97239.84
2018-06-01T08:38:34.597Z,97239.20
2018-06-01T08:41:02.771Z,97240.52
2018-06-01T08:43:30.940Z,97245.26
2018-06-01T08:46:00.546Z,97243.66
2018-06-01T08:48:28.692Z,97246.80
2018-06-01T08:50:56.843Z,97246.64
2018-06-01T08:53:29.223Z,97254.66
2018-06-01T08:55:57.365Z,97251.27
2018-06-01T08:58:25.536Z,97256.68
2018-06-01T09:00:53.678Z,97257.55
2018-06-01T09:03:21.969Z,97262.31
2018-06-01T09:05:50.117Z,97257.78
2018-06-01T09:08:18.285Z,97255.95
2018-06-01T09:10:46.436Z,97250.77
2018-06-01T09:13:14.581Z,97252.93
2018-06-01T09:15:42.761Z,97248.12
2018-06-01T09:18:10.943Z,97247.95
2018-06-01T09:20:39.099Z,97250.20
2018-06-01T09:25:42.165Z,97242.56
2018-06-01T09:28:10.369Z,97250.67
2018-06-01T09:30:38.544Z,97246.84
2018-06-01T09:33:06.717Z,97247.63
2018-06-01T09:35:34.901Z,97252.53
2018-06-01T09:38:03.063Z,97247.92
2018-06-01T09:40:31.236Z,97249.34
2018-06-01T09:42:59.383Z,97249.77
2018-06-01T09:45:27.552Z,97252.94
2018-06-01T09:47:55.715Z,97253.84
2018-06-01T09:50:29.775Z,97249.25
2018-06-01T09:52:57.928Z,97244.49
2018-06-01T09:55:26.115Z,97256.98
2018-06-01T09:57:54.296Z,97252.09
2018-06-01T10:00:28.029Z,97249.61
2018-06-01T10:02:56.220Z,97250.91
2018-06-01T10:05:24.441Z,97251.98
2018-06-01T10:07:52.597Z,97256.25
2018-06-01T10:10:26.353Z,97253.50
2018-06-01T10:12:54.512Z,97248.75
2018-06-01T10:15:22.683Z,97246.17
2018-06-01T10:17:50.831Z,97242.86
2018-06-01T10:20:19.008Z,97239.91
2018-06-01T10:22:47.155Z,97231.41
2018-06-01T10:25:15.323Z,97228.09
2018-06-01T10:27:43.470Z,97225.73
2018-06-01T10:30:11.653Z,97221.33
2018-06-01T10:32:39.819Z,97221.31
2018-06-01T10:35:08.706Z,97215.93
2018-06-01T10:40:09.739Z,97200.55
2018-06-01T10:42:37.911Z,97202.98
2018-06-01T10:45:08.269Z,97204.63
2018-06-01T10:50:09.228Z,97200.88
2018-06-01T10:52:37.444Z,97203.73
2018-06-01T10:57:38.382Z,97205.16
2018-06-01T11:00:06.549Z,97198.73
2018-06-01T11:02:36.809Z,97189.61
2018-06-01T11:05:04.981Z,97186.63
2018-06-01T11:07:33.159Z,97185.80
2018-06-01T11:10:01.329Z,97185.67
2018-06-01T11:12:29.471Z,97180.39
2018-06-01T11:14:57.635Z,97184.73
2018-06-01T11:17:26.140Z,97181.27
2018-06-01T11:19:54.395Z,97185.64
2018-06-01T11:22:22.558Z,97181.20
2018-06-01T11:24:50.745Z,97180.45
2018-06-01T11:27:18.910Z,97174.23
2018-06-01T11:29:48.136Z,97173.58
2018-06-01T11:32:22.671Z,97173.64
2018-06-01T11:34:50.812Z,97171.99
2018-06-01T11:37:18.959Z,97173.47
2018-06-01T11:39:47.117Z,97169.23
2018-06-01T11:42:15.297Z,97170.84
2018-06-01T11:44:43.463Z,97163.40
2018-06-01T11:47:11.686Z,97156.58
2018-06-01T11:49:39.844Z,97144.63
2018-06-01T11:52:08.013Z,97143.28
2018-06-01T11:54:36.160Z,97142.47
2018-06-01T11:57:04.333Z,97141.11
2018-06-01T11:59:32.499Z,97136.24
2018-06-01T12:02:00.668Z,97148.75
2018-06-01T12:04:28.830Z,97132.45
2018-06-01T12:06:57.007Z,97134.27
2018-06-01T12:09:25.183Z,97128.93
2018-06-01T12:11:53.343Z,97132.98
2018-06-01T12:14:21.509Z,97128.73
2018-06-01T12:16:49.764Z,97124.00
2018-06-01T12:19:24.829Z,97124.64
2018-06-01T12:21:52.980Z,97117.20
2018-06-01T12:24:22.685Z,97112.20
2018-06-01T12:26:50.850Z,97112.14
2018-06-01T12:29:25.907Z,97112.28
2018-06-01T12:31:54.080Z,97098.72
2018-06-01T12:34:22.248Z,97097.92
2018-06-01T12:36:50.461Z,97101.36
2018-06-01T12:39:19.513Z,97105.31
2018-06-01T12:41:47.689Z,97102.95
2018-06-01T12:44:15.839Z,97102.25
2018-06-01T12:46:44.002Z,97100.34
2018-06-01T12:49:12.151Z,97102.68
2018-06-01T12:51:40.329Z,97094.95
2018-06-01T12:54:08.564Z,97102.09
2018-06-01T12:56:36.712Z,97104.55
2018-06-01T12:59:04.866Z,97096.53
2018-06-01T13:01:33.057Z,97088.84
2018-06-01T13:04:01.229Z,97095.08
2018-06-01T13:06:29.397Z,97094.36
2018-06-01T13:08:57.658Z,97096.87
2018-06-01T13:11:25.837Z,97091.03
2018-06-01T13:13:53.997Z,97088.17
2018-06-01T13:16:22.169Z,97089.42
2018-06-01T13:18:52.090Z,97087.81
2018-06-01T13:21:20.637Z,97081.20
2018-06-01T13:23:48.806Z,97082.19
2018-06-01T13:26:16.949Z,97083.72
2018-06-01T13:28:45.194Z,97078.33
2018-06-01T13:31:13.335Z,97082.33
2018-06-01T13:33:41.507Z,97081.17
2018-06-01T13:36:09.692Z,97084.15
2018-06-01T13:38:37.836Z,97080.02
2018-06-01T13:41:06.024Z,97080.05
2018-06-01T13:43:34.208Z,97077.55
2018-06-01T13:46:02.391Z,97065.91
2018-06-01T13:48:30.556Z,97074.18
2018-06-01T13:51:02.556Z,97070.25
2018-06-01T13:53:30.723Z,97069.16
2018-06-01T13:55:59.875Z,97073.80
2018-06-01T14:00:32.101Z,97068.02
2018-06-01T14:03:00.257Z,97062.73
2018-06-01T14:05:28.420Z,97057.02
2018-06-01T14:07:56.597Z,97061.91
2018-06-01T14:10:25.613Z,97056.20
2018-06-01T14:12:53.813Z,97052.48
2018-06-01T14:15:21.964Z,97056.45
2018-06-01T14:17:50.147Z,97049.72
2018-06-01T14:20:18.342Z,97044.75
2018-06-01T14:22:46.518Z,97041.63
2018-06-01T14:25:17.478Z,97039.13
2018-06-01T14:27:45.627Z,97044.81
2018-06-01T14:30:17.748Z,97051.81
2018-06-01T14:32:45.981Z,97051.03
2018-06-01T14:35:14.204Z,97053.77
2018-06-01T14:37:42.392Z,97057.93
2018-06-01T14:40:13.326Z,97049.43
2018-06-01T14:42:41.508Z,97050.06
2018-06-01T14:45:09.717Z,97051.28
2018-06-01T14:47:37.878Z,97059.51
2018-06-01T14:50:06.043Z,97061.95
2018-06-01T14:52:34.211Z,97055.48
2018-06-01T14:55:02.359Z,97052.66
2018-06-01T14:57:30.551Z,97046.78
2018-06-01T14:59:58.696Z,97042.40
2018-06-01T15:02:26.880Z,97032.54
2018-06-01T15:04:55.022Z,97029.39
2018-06-01T15:07:23.196Z,97031.58
2018-06-01T15:09:52.736Z,97034.16
2018-06-01T15:12:23.890Z,97034.85
2018-06-01T15:14:52.053Z,97019.23
2018-06-01T15:17:20.228Z,97028.49
2018-06-01T15:19:48.402Z,97018.39
2018-06-01T15:22:16.547Z,97014.05
2018-06-01T15:24:44.724Z,97009.39
2018-06-01T15:27:12.871Z,97009.09
2018-06-01T15:29:42.015Z,97018.54
2018-06-01T15:32:10.203Z,97010.79
2018-06-01T15:34:38.370Z,97014.64
2018-06-01T15:37:06.539Z,97012.93
2018-06-01T15:39:34.677Z,97008.23
2018-06-01T15:42:02.853Z,97008.55
2018-06-01T15:44:31.029Z,97009.52
2018-06-01T15:46:59.190Z,97014.57
2018-06-01T15:49:28.604Z,97005.69
2018-06-01T15:51:56.759Z,97009.31
2018-06-01T15:54:24.930Z,97010.17
2018-06-01T15:56:53.114Z,97006.34
2018-06-01T15:59:21.268Z,97021.67
2018-06-01T16:01:49.434Z,97018.70
2018-06-01T16:04:17.621Z,97023.63
2018-06-01T16:06:45.783Z,97032.21
2018-06-01T16:11:46.768Z,97030.70
2018-06-01T16:14:14.957Z,97024.83
2018-06-01T16:16:43.622Z,97027.11
2018-06-01T16:19:11.791Z,97026.26
2018-06-01T16:21:40.474Z,97025.66
2018-06-01T16:24:08.652Z,97029.61
2018-06-01T16:26:36.809Z,97024.06
2018-06-01T16:29:04.973Z,97029.37
2018-06-01T16:31:33.168Z,97024.84
2018-06-01T16:34:01.321Z,97028.41
2018-06-01T16:36:29.494Z,97015.53
2018-06-01T16:38:57.675Z,97019.44
2018-06-01T16:41:25.845Z,97023.30
2018-06-01T16:44:00.958Z,97025.43
2018-06-01T16:46:29.117Z,97026.45
2018-06-01T16:48:57.303Z,97022.52
2018-06-01T16:51:25.507Z,97025.41
2018-06-01T16:53:53.656Z,97022.67
2018-06-01T16:56:21.873Z,97018.95
2018-06-01T16:58:50.020Z,97018.55
2018-06-01T17:01:18.179Z,97021.40
2018-06-01T17:03:46.333Z,97022.84
2018-06-01T17:06:14.483Z,97021.64
2018-06-01T17:08:42.659Z,97025.11
2018-06-01T17:11:10.810Z,97026.39
2018-06-01T17:13:38.993Z,97030.69
2018-06-01T17:16:08.509Z,97023.81
2018-06-01T17:18:36.706Z,97024.95
2018-06-01T17:21:04.859Z,97035.28
2018-06-01T17:23:33.031Z,97043.47
2018-06-01T17:26:01.207Z,97038.41
2018-06-01T17:28:29.393Z,97037.14
2018-06-01T17:30:57.569Z,97034.59
2018-06-01T17:33:25.719Z,97035.92
2018-06-01T17:35:53.920Z,97033.59
2018-06-01T17:38:22.741Z,97031.32
2018-06-01T17:40:50.906Z,97036.66
2018-06-01T17:43:19.066Z,97034.41
2018-06-01T17:45:47.222Z,97031.61
2018-06-01T17:48:15.417Z,97031.43
2018-06-01T17:50:45.597Z,97031.23
2018-06-01T17:53:14.587Z,97037.72
2018-06-01T17:55:42.753Z,97037.55
2018-06-01T17:58:10.927Z,97035.36
2018-06-01T18:00:39.128Z,97038.59
2018-06-01T18:03:07.319Z,97032.77
2018-06-01T18:05:35.471Z,97029.50
2018-06-01T18:08:03.654Z,97036.57
2018-06-01T18:10:31.813Z,97035.47
2018-06-01T18:12:59.989Z,97029.75
2018-06-01T18:15:28.204Z,97026.30
2018-06-01T18:17:56.343Z,97033.33
2018-06-01T18:20:24.513Z,97031.31
2018-06-01T18:22:52.683Z,97031.90
2018-06-01T18:25:20.859Z,97030.41
2018-06-01T18:27:49.053Z,97022.81
2018-06-01T18:30:17.193Z,97033.31
2018-06-01T18:32:45.363Z,97024.03
2018-06-01T18:35:14.387Z,97029.43
2018-06-01T18:37:42.552Z,97028.30
2018-06-01T18:40:11.489Z,97034.06
2018-06-01T18:42:40.551Z,97035.63
2018-06-01T18:45:08.707Z,97042.41
2018-06-01T18:47:36.898Z,97042.20
2018-06-01T18:50:05.212Z,97046.42
2018-06-01T18:52:33.355Z,97044.05
2018-06-01T18:55:01.537Z,97049.02
2018-06-01T18:57:29.705Z,97058.68
2018-06-01T18:59:57.886Z,97060.61
2018-06-01T19:02:26.023Z,97058.63
2018-06-01T19:04:54.238Z,97059.59
2018-06-01T19:07:22.418Z,97057.70
2018-06-01T19:09:50.581Z,97063.98
2018-06-01T19:12:18.737Z,97061.56
2018-06-01T19:14:46.932Z,97053.98
2018-06-01T19:17:15.149Z,97059.37
2018-06-01T19:19:43.314Z,97064.73
2018-06-01T19:22:11.471Z,97079.95
2018-06-01T19:24:39.738Z,97088.28
2018-06-01T19:27:08.560Z,97087.55
2018-06-01T19:29:37.459Z,97096.67
2018-06-01T19:32:05.648Z,97097.21
2018-06-01T19:34:33.885Z,97102.13
2018-06-01T19:37:02.029Z,97105.75
2018-06-01T19:39:38.377Z,97105.94
2018-06-01T19:42:06.517Z,97117.33
2018-06-01T19:44:34.699Z,97116.33
2018-06-01T19:47:03.038Z,97115.73
2018-06-01T19:49:31.200Z,97118.55
2018-06-01T19:51:59.399Z,97129.98
2018-06-01T19:54:27.585Z,97133.64
2018-06-01T19:56:55.761Z,97132.55
2018-06-01T19:59:23.985Z,97126.26
2018-06-01T20:01:52.105Z,97123.47
2018-06-01T20:04:20.268Z,97124.50
2018-06-01T20:06:48.436Z,97122.06
2018-06-01T20:09:16.607Z,97132.06
2018-06-01T20:11:44.786Z,97133.53
2018-06-01T20:14:13.026Z,97135.41
2018-06-01T20:16:41.187Z,97141.66
2018-06-01T20:19:15.900Z,97137.45
2018-06-01T20:21:44.072Z,97137.56
2018-06-01T20:24:12.810Z,97132.52
2018-06-01T20:26:41.016Z,97135.68
2018-06-01T20:29:11.691Z,97131.08
2018-06-01T20:31:39.884Z,97126.55
2018-06-01T20:34:08.062Z,97134.44
2018-06-01T20:36:36.233Z,97136.75
2018-06-01T20:39:04.415Z,97140.67
2018-06-01T20:41:33.228Z,97136.96
2018-06-01T20:44:01.425Z,97131.85
2018-06-01T20:46:29.570Z,97132.86
2018-06-01T20:48:57.730Z,97136.79
2018-06-01T20:51:25.909Z,97134.27
2018-06-01T20:53:54.082Z,97137.38
2018-06-01T20:56:22.240Z,97144.35
2018-06-01T20:58:50.403Z,97145.65
2018-06-01T21:01:18.652Z,97149.13
2018-06-01T21:03:46.795Z,97147.47
2018-06-01T21:06:14.976Z,97148.38
2018-06-01T21:08:43.142Z,97146.32
2018-06-01T21:11:12.023Z,97150.39
2018-06-01T21:13:40.820Z,97153.54
2018-06-01T21:16:09.010Z,97153.34
2018-06-01T21:18:37.255Z,97151.05
2018-06-01T21:21:05.514Z,97160.20
2018-06-01T21:23:33.710Z,97156.48
2018-06-01T21:26:01.886Z,97162.19
2018-06-01T21:28:30.068Z,97164.43
2018-06-01T21:30:58.268Z,97163.19
2018-06-01T21:33:27.526Z,97160.66
2018-06-01T21:35:55.699Z,97164.22
2018-06-01T21:38:23.867Z,97164.28
2018-06-01T21:40:52.056Z,97158.27
2018-06-01T21:43:20.227Z,97158.39
2018-06-01T21:45:48.393Z,97152.05
2018-06-01T21:48:19.714Z,97150.84
2018-06-01T21:50:47.922Z,97145.36
2018-06-01T21:53:16.076Z,97140.72
2018-06-01T21:55:44.267Z,97148.14
2018-06-01T21:58:12.456Z,97139.73
2018-06-01T22:00:40.701Z,97145.39
2018-06-01T22:03:08.888Z,97138.56
2018-06-01T22:05:37.052Z,97138.27
2018-06-01T22:08:05.495Z,97140.02
2018-06-01T22:10:33.656Z,97129.34
2018-06-01T22:13:01.837Z,97130.32
2018-06-01T22:15:30.036Z,97135.12
2018-06-01T22:17:58.688Z,97136.44
2018-06-01T22:20:26.846Z,97136.14
2018-06-01T22:22:55.006Z,97139.69
2018-06-01T22:25:24.666Z,97135.86
2018-06-01T22:27:52.895Z,97140.31
2018-06-01T22:30:21.244Z,97143.00
2018-06-01T22:32:49.437Z,97148.19
2018-06-01T22:35:17.636Z,97150.84
2018-06-01T22:37:45.797Z,97153.88
2018-06-01T22:40:13.974Z,97154.38
2018-06-01T22:42:42.135Z,97152.28
2018-06-01T22:45:13.756Z,97153.56
2018-06-01T22:47:41.934Z,97154.02
2018-06-01T22:50:10.094Z,97151.92
2018-06-01T22:52:38.288Z,97155.45
2018-06-01T22:55:06.456Z,97171.78
2018-06-01T22:57:34.640Z,97179.20
2018-06-01T23:00:02.793Z,97186.17
2018-06-01T23:02:30.969Z,97185.67
2018-06-01T23:04:59.126Z,97180.86
2018-06-01T23:07:27.334Z,97178.21
2018-06-01T23:09:55.496Z,97180.71
2018-06-01T23:12:23.660Z,97183.25
2018-06-01T23:14:51.826Z,97187.53
2018-06-01T23:17:19.997Z,97181.11
2018-06-01T23:19:48.213Z,97185.35
2018-06-01T23:22:17.101Z,97184.86
2018-06-01T23:24:45.324Z,97183.56
2018-06-01T23:27:13.482Z,97184.36
2018-06-01T23:29:41.660Z,97185.25
